Canton, Ohio
Current Conditions -  °F | °C
As of 2:51 PM on Monday 24 Nov 2014 (Local Time) from KCAK Reporting Station
Broken Clouds Broken Clouds  
Wind Chill: 58°   Ceiling: 3800
Heat Index: 58°   Visibility: 10mi
Dew Point: 41°   Wind: 33mph
Humidity: 53%   Direction: 240°WSW
Pressure: 29.45"   Gusts: 56mph
Location:  40.8°N, 81.37°W
Report Text: KCAK 241951Z 24029G49KT 10SM BKN038 BKN060 14/05 A2945 RMK AO2 PK WND 24049/1944 SLP968 T01440050 $
Loading
Personal Weather Stations






























Interactive Weather Map New forecast layout! Learn more

10-Day Weather Forecast

Advertisements
Track Severe Weather on mobile